Terminal Aerodrome Forecast
Issued by NWS Wilmington, OH

Home | Current Version | Previous Version | Text Only | Print | Product List | Glossary On
Versions: 1 2 3 4 5 6 7 8 9 10 11 12 13 14 15 16 17 18 19 20 21 22 23 24 25 26 27 28 29
000
FTUS41 KILN 032300
TAFCVG
TAF
KCVG 032333Z 0400/0506 00000KT P6SM BKN035
     FM040400 VRB03KT P6SM SCT040
     FM040900 VRB03KT 5SM BR FEW040
      TEMPO 0410/0413 2SM BR SKC
     FM041300 15004KT P6SM SCT035
      TEMPO 0418/0422 BKN040
     FM050000 24003KT P6SM SKC=

USA.gov is the U.S. government's official web portal to all federal, state and local government web resources and services.